Time;durP1;ratioP1;P1;durP2;ratioP2;P2;SDS_P1;SDS_P2;PMS_P1;PMS_P2;Temp;Humidity;BMP_temperature;BMP_pressure;BME280_temperature;BME280_humidity;BME280_pressure;Samples;Min_cycle;Max_cycle;Signal;HPM_P1;HPM_P2
2023/09/29 00:00:48;;;;;;;15.90;8.38;;;;;;;18.51;56.99;100606.34;5032825;27;98132;-79
2023/09/29 00:03:15;;;;;;;13.05;8.27;;;;;;;18.47;56.87;100607.50;5014969;27;101782;-79
2023/09/29 00:05:42;;;;;;;14.20;8.60;;;;;;;18.42;57.16;100600.78;5032975;27;97154;-79
2023/09/29 00:08:08;;;;;;;11.98;8.98;;;;;;;18.37;57.26;100610.81;5016993;27;97738;-79
2023/09/29 00:10:34;;;;;;;19.95;9.68;;;;;;;18.08;57.49;100582.44;5015786;27;101230;-79
2023/09/29 00:13:00;;;;;;;12.45;8.90;;;;;;;18.02;57.56;100590.78;5033730;27;101045;-79
2023/09/29 00:15:25;;;;;;;12.50;8.25;;;;;;;18.05;57.80;100603.03;5030161;27;98090;-79
2023/09/29 00:17:51;;;;;;;10.65;9.10;;;;;;;18.05;57.55;100598.56;5052700;27;96904;-79
2023/09/29 00:20:23;;;;;;;14.32;9.48;;;;;;;18.07;57.64;100599.34;5053502;27;98251;-81
2023/09/29 00:22:53;;;;;;;16.15;9.25;;;;;;;18.02;57.80;100603.22;5054186;27;97861;-79
2023/09/29 00:25:19;;;;;;;12.50;10.07;;;;;;;17.66;58.51;100596.47;5033747;27;96804;-81
2023/09/29 00:27:45;;;;;;;15.98;7.90;;;;;;;17.82;58.32;100605.25;5034122;27;97269;-78
2023/09/29 00:30:17;;;;;;;13.63;7.78;;;;;;;17.73;58.55;100618.19;5052607;27;97935;-81
2023/09/29 00:32:50;;;;;;;13.98;8.70;;;;;;;17.66;58.53;100609.75;5037944;27;98499;-81
2023/09/29 00:35:21;;;;;;;13.02;8.48;;;;;;;17.64;58.53;100598.34;5036164;27;97235;-81
2023/09/29 00:37:53;;;;;;;14.10;7.60;;;;;;;17.80;58.35;100601.84;5035825;27;96806;-81
2023/09/29 00:40:19;;;;;;;14.77;8.07;;;;;;;17.82;58.16;100596.44;5053141;27;98124;-81
2023/09/29 00:42:44;;;;;;;10.30;6.25;;;;;;;17.77;58.11;100594.03;5053926;27;97920;-81
2023/09/29 00:45:10;;;;;;;12.88;11.02;;;;;;;17.83;57.67;100595.47;5046635;27;96809;-81
2023/09/29 00:47:37;;;;;;;12.30;8.57;;;;;;;17.76;57.77;100570.22;5033899;27;97410;-80
2023/09/29 00:50:05;;;;;;;15.38;11.75;;;;;;;17.88;57.85;100604.03;5050512;27;101378;-80
2023/09/29 00:52:31;;;;;;;25.00;17.05;;;;;;;17.69;58.54;100604.25;5053233;27;97568;-80
2023/09/29 00:54:57;;;;;;;16.13;8.55;;;;;;;17.49;58.64;100578.88;5035472;27;97124;-81
2023/09/29 00:57:22;;;;;;;17.88;9.10;;;;;;;17.45;58.41;100573.84;5053426;27;96845;-81
2023/09/29 00:59:51;;;;;;;13.82;6.80;;;;;;;17.63;58.48;100599.31;5035714;27;100173;-81
2023/09/29 01:02:17;;;;;;;13.02;9.85;;;;;;;17.60;58.78;100592.38;5053336;27;97859;-80
2023/09/29 01:04:48;;;;;;;16.55;7.28;;;;;;;17.35;58.97;100571.72;5019518;27;97208;-81
2023/09/29 01:07:15;;;;;;;19.53;8.83;;;;;;;17.23;59.41;100583.06;5053727;27;96756;-81
2023/09/29 01:09:41;;;;;;;11.40;7.70;;;;;;;17.18;59.58;100580.66;5018736;27;101508;-80
2023/09/29 01:12:10;;;;;;;16.73;8.25;;;;;;;17.08;59.64;100563.56;5033329;28;97869;-81
2023/09/29 01:14:35;;;;;;;8.65;6.80;;;;;;;17.23;59.86;100592.81;5048002;27;97300;-81
2023/09/29 01:17:02;;;;;;;13.73;7.60;;;;;;;17.15;59.63;100593.25;5054980;27;97266;-80
2023/09/29 01:19:27;;;;;;;13.35;6.57;;;;;;;17.16;60.01;100589.63;5035388;27;98003;-80
2023/09/29 01:21:53;;;;;;;13.52;7.28;;;;;;;17.23;59.71;100580.41;5035985;27;101011;-81
2023/09/29 01:24:19;;;;;;;14.43;7.18;;;;;;;17.18;59.59;100555.94;5052768;27;97122;-81
2023/09/29 01:26:45;;;;;;;11.07;7.30;;;;;;;17.37;58.95;100585.75;5032800;27;97727;-80
2023/09/29 01:29:11;;;;;;;11.52;6.45;;;;;;;17.26;59.53;100561.66;5013817;27;101487;-81
2023/09/29 01:31:37;;;;;;;10.23;7.13;;;;;;;17.45;58.98;100587.09;5015228;28;101326;-81
2023/09/29 01:34:04;;;;;;;10.45;6.25;;;;;;;17.32;58.67;100560.44;5048678;27;97938;-81
2023/09/29 01:36:30;;;;;;;9.48;6.72;;;;;;;17.49;58.90;100586.84;5052319;27;97053;-81
2023/09/29 01:38:56;;;;;;;13.95;7.20;;;;;;;17.50;58.72;100593.00;5018861;27;100919;-80
2023/09/29 01:41:21;;;;;;;16.48;6.97;;;;;;;17.53;59.07;100585.72;5035085;27;101229;-80
2023/09/29 01:43:47;;;;;;;12.45;6.57;;;;;;;17.55;59.04;100591.78;5035693;27;97981;-80
2023/09/29 01:46:15;;;;;;;11.10;6.93;;;;;;;17.46;58.90;100578.22;5032430;27;97039;-81
2023/09/29 01:48:44;;;;;;;16.60;7.20;;;;;;;17.43;58.86;100590.72;5052579;27;98158;-80
2023/09/29 01:51:11;;;;;;;9.45;7.60;;;;;;;17.43;58.95;100585.41;5031474;28;100889;-80
2023/09/29 01:53:37;;;;;;;21.40;7.40;;;;;;;17.31;58.83;100566.72;5035339;27;97813;-80
2023/09/29 01:56:02;;;;;;;10.13;6.28;;;;;;;17.40;59.02;100588.25;5053878;27;96829;-80
2023/09/29 01:58:28;;;;;;;13.40;7.65;;;;;;;17.23;59.21;100583.06;5035068;27;101650;-80
2023/09/29 02:00:54;;;;;;;11.82;6.70;;;;;;;17.22;59.57;100583.13;5052153;27;97421;-80
2023/09/29 02:03:20;;;;;;;12.10;7.20;;;;;;;17.23;59.48;100582.22;5035679;27;96965;-80
2023/09/29 02:05:46;;;;;;;14.45;12.65;;;;;;;17.10;59.69;100584.69;5018171;27;97391;-80
2023/09/29 02:08:12;;;;;;;13.32;7.53;;;;;;;17.09;59.83;100580.34;5052239;27;97450;-80
2023/09/29 02:10:37;;;;;;;14.90;6.97;;;;;;;17.02;60.16;100579.00;5032877;27;97431;-80
2023/09/29 02:13:04;;;;;;;13.05;7.60;;;;;;;16.90;60.09;100556.66;5052860;27;97294;-81
2023/09/29 02:15:34;;;;;;;15.10;8.48;;;;;;;17.07;60.11;100580.41;5035092;27;96903;-80
2023/09/29 02:18:04;;;;;;;14.77;11.63;;;;;;;17.03;59.97;100583.34;5032057;27;101413;-80
2023/09/29 02:20:30;;;;;;;10.48;8.70;;;;;;;16.92;60.20;100568.88;5034418;27;101614;-81
2023/09/29 02:23:00;;;;;;;10.43;7.53;;;;;;;16.82;60.11;100558.91;5034765;27;97625;-80
2023/09/29 02:25:28;;;;;;;12.48;9.23;;;;;;;16.90;60.60;100572.56;5012888;27;97441;-81
2023/09/29 02:27:57;;;;;;;13.77;8.82;;;;;;;16.95;60.34;100571.34;5036235;27;99663;-80
2023/09/29 02:30:24;;;;;;;11.18;9.23;;;;;;;17.00;59.93;100568.44;5042877;27;98063;-81
2023/09/29 02:32:52;;;;;;;13.38;10.10;;;;;;;16.91;60.42;100572.47;5031957;27;97038;-81
2023/09/29 02:35:18;;;;;;;11.35;9.82;;;;;;;16.81;60.44;100571.28;5025904;27;98127;-80
2023/09/29 02:37:44;;;;;;;13.35;7.32;;;;;;;16.67;60.63;100561.44;5051780;27;97997;-79
2023/09/29 02:40:12;;;;;;;13.15;6.65;;;;;;;16.66;60.89;100549.09;5050526;27;97756;-78
2023/09/29 02:42:38;;;;;;;16.75;7.60;;;;;;;16.74;60.79;100569.88;5014961;28;97923;-81
2023/09/29 02:45:05;;;;;;;26.65;8.25;;;;;;;16.79;60.76;100567.88;5034060;27;96984;-79
2023/09/29 02:47:31;;;;;;;10.27;7.95;;;;;;;16.69;60.77;100562.19;5051034;27;101259;-79
2023/09/29 02:49:57;;;;;;;11.55;7.80;;;;;;;16.66;60.79;100558.84;5051211;27;97789;-81
2023/09/29 02:52:24;;;;;;;16.85;8.85;;;;;;;16.68;60.99;100568.44;5051715;27;97248;-79
2023/09/29 02:54:49;;;;;;;11.18;7.50;;;;;;;16.60;61.06;100561.84;5032924;27;98834;-81
2023/09/29 02:57:16;;;;;;;14.75;10.18;;;;;;;16.42;60.75;100526.63;5034170;27;98399;-79
2023/09/29 02:59:42;;;;;;;10.60;9.43;;;;;;;16.59;60.99;100566.28;5033818;27;97989;-79
2023/09/29 03:02:08;;;;;;;16.15;8.25;;;;;;;16.46;61.16;100552.00;5051990;27;96793;-78
2023/09/29 03:04:33;;;;;;;12.18;7.97;;;;;;;16.34;61.66;100552.66;5051674;27;97307;-78
2023/09/29 03:06:59;;;;;;;17.23;11.75;;;;;;;16.32;61.90;100555.41;5051215;27;98146;-79
2023/09/29 03:09:25;;;;;;;13.07;8.90;;;;;;;16.33;62.01;100558.91;5050746;27;101540;-79
2023/09/29 03:11:51;;;;;;;14.13;7.93;;;;;;;16.38;61.81;100555.09;5034265;27;96840;-79
2023/09/29 03:14:17;;;;;;;12.13;7.93;;;;;;;16.40;61.57;100557.63;5052271;27;96998;-81
2023/09/29 03:16:43;;;;;;;11.88;8.73;;;;;;;16.43;61.37;100545.06;5051135;27;98116;-79
2023/09/29 03:19:09;;;;;;;10.38;7.97;;;;;;;16.55;61.36;100563.88;5051487;27;97911;-79
2023/09/29 03:21:34;;;;;;;12.43;7.03;;;;;;;16.53;61.21;100559.53;5050385;27;97443;-79
2023/09/29 03:24:03;;;;;;;17.05;7.88;;;;;;;16.58;61.14;100569.00;5034221;27;96894;-78
2023/09/29 03:26:31;;;;;;;13.23;8.23;;;;;;;16.37;61.60;100563.94;5013178;28;101761;-79
2023/09/29 03:28:57;;;;;;;13.70;8.57;;;;;;;16.32;61.53;100568.66;5050244;27;97802;-79
2023/09/29 03:31:23;;;;;;;63.00;25.20;;;;;;;16.35;61.60;100557.03;5051005;27;97387;-79
2023/09/29 03:33:49;;;;;;;24.40;22.08;;;;;;;16.37;61.61;100552.50;5051333;27;97196;-79
2023/09/29 03:36:20;;;;;;;22.88;20.95;;;;;;;16.40;61.35;100553.19;5029694;28;101220;-79
2023/09/29 03:38:46;;;;;;;24.00;22.20;;;;;;;16.44;61.28;100564.50;5029286;27;101575;-79
2023/09/29 03:41:12;;;;;;;20.55;18.85;;;;;;;16.43;61.28;100550.38;5050485;27;96812;-79
2023/09/29 03:43:38;;;;;;;17.55;15.90;;;;;;;16.48;61.14;100555.44;5034172;27;96984;-79
2023/09/29 03:46:04;;;;;;;15.27;13.18;;;;;;;16.40;61.37;100555.84;5032900;27;97431;-79
2023/09/29 03:48:30;;;;;;;17.67;13.93;;;;;;;16.38;61.25;100557.72;5033805;27;99088;-79
2023/09/29 03:50:57;;;;;;;14.68;13.18;;;;;;;16.19;61.61;100528.72;5033369;27;97061;-79
2023/09/29 03:53:23;;;;;;;21.25;13.25;;;;;;;16.33;61.60;100549.16;5051130;27;97163;-78
2023/09/29 03:55:48;;;;;;;15.95;13.05;;;;;;;16.24;61.95;100553.16;5051779;27;98488;-78
2023/09/29 03:58:14;;;;;;;15.18;13.48;;;;;;;16.23;61.79;100551.47;5030464;27;100780;-79
2023/09/29 04:00:41;;;;;;;15.52;14.02;;;;;;;16.21;62.15;100547.19;5050490;27;96778;-79
2023/09/29 04:03:07;;;;;;;21.20;19.33;;;;;;;16.19;62.27;100549.91;5034240;27;97582;-78
2023/09/29 04:05:32;;;;;;;36.88;27.73;;;;;;;16.02;62.28;100539.34;5029666;28;101192;-78
2023/09/29 04:07:58;;;;;;;34.53;27.98;;;;;;;15.92;62.59;100524.91;5029078;27;100807;-79
2023/09/29 04:10:23;;;;;;;23.45;20.95;;;;;;;16.12;62.55;100542.41;5031969;27;96756;-78
2023/09/29 04:12:49;;;;;;;26.25;23.85;;;;;;;16.12;62.16;100545.03;5034036;27;96793;-82
2023/09/29 04:15:16;;;;;;;22.58;20.88;;;;;;;16.14;62.32;100548.44;5026892;27;99589;-78
2023/09/29 04:17:41;;;;;;;25.35;21.90;;;;;;;16.01;62.41;100527.91;5022868;27;97555;-78
2023/09/29 04:20:08;;;;;;;24.33;22.15;;;;;;;16.09;62.37;100551.34;5051227;27;97192;-79
2023/09/29 04:22:34;;;;;;;22.60;20.65;;;;;;;15.92;62.66;100523.13;5029212;27;96913;-78
2023/09/29 04:25:00;;;;;;;27.00;24.50;;;;;;;15.87;63.24;100537.53;5051384;27;97514;-79
2023/09/29 04:27:25;;;;;;;22.95;21.08;;;;;;;16.00;62.52;100551.84;5050416;27;98062;-79
2023/09/29 04:29:51;;;;;;;22.83;20.92;;;;;;;15.88;62.37;100518.06;5050034;27;96787;-80
2023/09/29 04:32:17;;;;;;;23.85;21.55;;;;;;;16.09;62.28;100555.81;5028564;27;96985;-82
2023/09/29 04:34:44;;;;;;;24.20;21.50;;;;;;;15.91;62.83;100539.94;5049514;27;98165;-78
2023/09/29 04:37:09;;;;;;;29.33;23.65;;;;;;;16.01;62.51;100553.53;5032782;27;101372;-80
2023/09/29 04:39:35;;;;;;;22.63;20.15;;;;;;;15.90;62.66;100554.09;5023922;27;97132;-81
2023/09/29 04:42:02;;;;;;;20.15;15.38;;;;;;;15.77;62.80;100522.13;5009358;27;97256;-81
2023/09/29 04:44:28;;;;;;;20.25;15.38;;;;;;;15.80;63.24;100551.09;5027430;27;101872;-82
2023/09/29 04:46:53;;;;;;;21.50;19.02;;;;;;;15.70;63.53;100551.63;5024562;27;99235;-81
2023/09/29 04:49:19;;;;;;;17.35;15.50;;;;;;;15.67;63.51;100547.31;5014738;28;97076;-81
2023/09/29 04:51:44;;;;;;;23.00;15.98;;;;;;;15.64;63.65;100544.84;5042660;27;97071;-85
2023/09/29 04:54:10;;;;;;;19.13;15.88;;;;;;;15.67;63.60;100543.81;5014618;27;100898;-85
2023/09/29 04:56:36;;;;;;;18.83;14.98;;;;;;;15.60;63.37;100533.56;5029730;28;97572;-86
2023/09/29 04:59:01;;;;;;;19.25;16.40;;;;;;;15.69;63.68;100549.94;5030987;27;96981;-83
2023/09/29 05:01:27;;;;;;;16.13;14.52;;;;;;;15.52;63.44;100519.00;5049898;27;97191;-85
2023/09/29 05:03:53;;;;;;;23.88;14.82;;;;;;;15.71;63.26;100554.22;5019454;27;101731;-86
2023/09/29 05:06:19;;;;;;;17.50;15.13;;;;;;;15.70;62.94;100527.81;5053770;27;97839;-86
2023/09/29 05:08:44;;;;;;;20.40;16.30;;;;;;;15.74;63.26;100548.75;5036615;27;96882;-76
2023/09/29 05:11:24;;;;;;;16.75;15.25;;;;;;;15.66;63.57;100553.56;5032396;27;97419;-84
2023/09/29 05:13:50;;;;;;;18.42;16.60;;;;;;;15.68;63.57;100554.38;5039072;27;97736;-77
2023/09/29 05:16:16;;;;;;;21.05;15.18;;;;;;;15.72;63.40;100555.06;5031835;27;97726;-78
2023/09/29 05:18:42;;;;;;;16.73;15.23;;;;;;;15.74;63.43;100546.13;5008409;27;97235;-77
2023/09/29 05:21:09;;;;;;;15.70;13.55;;;;;;;15.33;63.51;100503.22;5036358;27;97297;-79
2023/09/29 05:23:35;;;;;;;19.55;14.43;;;;;;;15.62;63.56;100546.72;5053640;27;98153;-77
2023/09/29 05:26:04;;;;;;;15.32;13.38;;;;;;;15.79;63.42;100556.44;5035414;27;101214;-76
2023/09/29 05:28:30;;;;;;;17.10;13.90;;;;;;;15.68;63.47;100548.19;5035314;27;97166;-79
2023/09/29 05:30:56;;;;;;;21.88;15.18;;;;;;;15.68;63.28;100525.28;5052570;27;96919;-80
2023/09/29 05:33:21;;;;;;;15.20;13.27;;;;;;;15.89;63.34;100549.75;5053426;27;98235;-78
2023/09/29 05:35:47;;;;;;;15.15;13.68;;;;;;;15.86;63.29;100557.00;5034816;27;101477;-80
2023/09/29 05:38:12;;;;;;;20.42;13.60;;;;;;;15.81;63.54;100547.50;5053903;27;96852;-76
2023/09/29 05:40:38;;;;;;;19.77;14.93;;;;;;;15.78;63.49;100550.31;5052922;27;97468;-78
2023/09/29 05:43:09;;;;;;;16.17;13.52;;;;;;;15.89;62.96;100538.31;5053548;27;98164;-78
2023/09/29 05:45:39;;;;;;;15.52;13.95;;;;;;;16.09;62.94;100551.34;5035260;27;97988;-78
2023/09/29 05:48:06;;;;;;;17.45;14.32;;;;;;;16.55;61.58;100543.56;5027419;27;97900;-79
2023/09/29 05:50:32;;;;;;;15.95;13.77;;;;;;;16.94;60.61;100550.25;5043689;27;97257;-76
2023/09/29 05:52:57;;;;;;;14.20;12.75;;;;;;;17.16;59.80;100547.19;5025053;27;101512;-78
2023/09/29 05:55:23;;;;;;;18.05;13.77;;;;;;;17.40;59.02;100536.97;5050313;27;97393;-79
2023/09/29 05:57:49;;;;;;;15.10;12.70;;;;;;;17.78;58.16;100548.00;5029790;27;96973;-80
2023/09/29 06:00:15;;;;;;;19.40;12.95;;;;;;;17.98;57.53;100548.59;5031203;27;97004;-78
2023/09/29 06:02:41;;;;;;;16.42;12.60;;;;;;;18.05;57.15;100553.41;5028093;27;101565;-79
2023/09/29 06:05:07;;;;;;;14.55;13.13;;;;;;;18.53;56.17;100553.13;5022961;27;100090;-78
2023/09/29 06:07:33;;;;;;;17.65;11.85;;;;;;;18.92;55.29;100552.38;5046241;27;96856;-78
2023/09/29 06:10:00;;;;;;;16.13;13.43;;;;;;;19.32;54.26;100554.22;5014442;27;96976;-76
2023/09/29 06:12:25;;;;;;;16.75;13.23;;;;;;;19.47;53.55;100529.22;5046218;27;97925;-76
2023/09/29 06:14:51;;;;;;;14.98;13.57;;;;;;;20.18;52.36;100559.00;5041700;27;101097;-77
2023/09/29 06:17:17;;;;;;;17.25;15.48;;;;;;;20.55;51.15;100563.44;5047209;27;96777;-76
2023/09/29 06:19:43;;;;;;;17.48;15.27;;;;;;;20.89;50.63;100557.50;5030656;27;98239;-77
2023/09/29 06:22:09;;;;;;;19.05;12.98;;;;;;;20.45;50.36;100541.06;5002279;28;101472;-76
2023/09/29 06:24:35;;;;;;;17.30;14.45;;;;;;;20.84;49.97;100548.97;5048107;27;97736;-76
2023/09/29 06:27:01;;;;;;;19.30;14.05;;;;;;;21.50;49.24;100558.28;5047573;27;96983;-76
2023/09/29 06:29:27;;;;;;;21.00;14.02;;;;;;;21.51;48.72;100573.34;5053025;27;96854;-76
2023/09/29 06:31:54;;;;;;;20.63;14.57;;;;;;;22.10;47.91;100570.53;5011437;27;101582;-78
2023/09/29 06:34:19;;;;;;;21.17;16.05;;;;;;;22.73;46.67;100565.56;5051742;27;97457;-81
2023/09/29 06:36:45;;;;;;;21.88;13.73;;;;;;;23.04;45.69;100555.91;5030039;27;97376;-80
2023/09/29 06:39:12;;;;;;;22.08;15.80;;;;;;;23.30;45.36;100568.09;5051412;27;96847;-79
2023/09/29 06:41:38;;;;;;;15.95;14.45;;;;;;;23.49;44.76;100565.56;5034799;27;97261;-82
2023/09/29 06:44:06;;;;;;;22.42;15.30;;;;;;;24.78;42.78;100571.38;5030797;27;100803;-79
2023/09/29 06:46:32;;;;;;;22.80;12.43;;;;;;;25.23;41.50;100554.75;5051953;27;96833;-79
2023/09/29 06:48:58;;;;;;;20.50;14.32;;;;;;;25.53;40.07;100572.56;5037251;27;97721;-78
2023/09/29 06:51:24;;;;;;;16.05;14.48;;;;;;;26.78;38.39;100558.03;5050386;27;98109;-77
2023/09/29 06:53:49;;;;;;;22.33;14.27;;;;;;;28.60;36.17;100569.09;5050113;27;98134;-76
2023/09/29 06:56:15;;;;;;;13.77;12.45;;;;;;;29.46;34.64;100550.84;5014032;28;96791;-78
2023/09/29 06:58:40;;;;;;;13.88;12.55;;;;;;;28.37;36.18;100576.88;5029064;27;97548;-80
2023/09/29 07:01:05;;;;;;;17.95;12.38;;;;;;;28.93;35.43;100574.56;5021592;27;100774;-80
2023/09/29 07:03:31;;;;;;;18.55;13.70;;;;;;;29.26;34.89;100558.44;5033896;27;100995;-80
2023/09/29 07:06:03;;;;;;;19.98;14.00;;;;;;;28.62;35.33;100571.59;5046379;27;97924;-86
2023/09/29 07:08:29;;;;;;;14.77;13.48;;;;;;;29.23;34.39;100551.50;5052855;27;96873;-82
2023/09/29 07:10:55;;;;;;;20.23;12.00;;;;;;;29.65;33.81;100557.81;5043130;27;98240;-82
2023/09/29 07:13:20;;;;;;;20.17;12.63;;;;;;;30.70;33.02;100554.97;5050995;27;97495;-78
2023/09/29 07:15:46;;;;;;;22.73;18.10;;;;;;;31.44;32.16;100548.03;5033807;27;96789;-78
2023/09/29 07:18:13;;;;;;;19.40;11.00;;;;;;;31.34;31.13;100558.28;5034583;27;97543;-79
2023/09/29 07:20:44;;;;;;;22.95;13.35;;;;;;;32.14;30.36;100541.41;5051785;27;97297;-79
2023/09/29 07:23:10;;;;;;;12.07;9.48;;;;;;;33.11;29.62;100552.06;5032648;27;101119;-81
2023/09/29 07:25:39;;;;;;;19.58;12.18;;;;;;;34.56;27.55;100547.06;5023785;27;97444;-80
2023/09/29 07:28:15;;;;;;;20.27;10.57;;;;;;;36.48;25.78;100555.31;5051636;27;96784;-81
2023/09/29 07:30:41;;;;;;;14.88;10.05;;;;;;;36.76;25.36;100540.47;5027207;27;101253;-83
2023/09/29 07:33:06;;;;;;;12.15;10.73;;;;;;;38.56;23.13;100545.22;5026790;27;101471;-80
2023/09/29 07:35:32;;;;;;;12.82;10.13;;;;;;;39.30;22.94;100553.25;5036551;27;97414;-80
2023/09/29 07:37:59;;;;;;;16.30;13.40;;;;;;;38.61;23.21;100542.63;5029701;27;98218;-80
2023/09/29 07:40:25;;;;;;;10.73;4.57;;;;;;;39.42;22.33;100556.00;5029159;27;101780;-80
2023/09/29 07:42:51;;;;;;;54.92;29.40;;;;;;;37.03;24.22;100554.88;5014027;27;101679;-82
2023/09/29 07:45:17;;;;;;;30.80;28.63;;;;;;;38.67;22.99;100560.88;5045183;27;97152;-81
2023/09/29 07:47:43;;;;;;;36.15;28.52;;;;;;;39.69;22.39;100554.50;5050286;27;97194;-81
2023/09/29 07:50:09;;;;;;;7.57;4.68;;;;;;;39.37;22.41;100552.06;5027318;27;101410;-79
2023/09/29 07:52:38;;;;;;;9.05;4.60;;;;;;;40.66;21.25;100556.63;5049923;27;97455;-82
2023/09/29 07:55:07;;;;;;;9.13;4.20;;;;;;;41.91;19.97;100556.59;5050596;27;97235;-79
2023/09/29 07:57:32;;;;;;;;;;;;;;;42.99;19.34;100558.75;5030738;27;96954;-81
2023/09/29 07:59:58;;;;;;;;;;;;;;;40.11;21.26;100557.09;5012644;27;101201;-80
2023/09/29 08:02:24;;;;;;;;;;;;;;;42.26;19.72;100547.97;5032358;27;101503;-80
2023/09/29 08:04:49;;;;;;;;;;;;;;;43.98;18.65;100553.75;5016876;27;96824;-83
2023/09/29 08:07:15;;;;;;;;;;;;;;;42.66;18.86;100551.50;5031087;28;96947;-80
2023/09/29 08:09:40;;;;;;;;;;;;;;;40.51;20.87;100548.91;5045397;27;97453;-82
2023/09/29 08:12:06;;;;;;;;;;;;;;;39.63;21.88;100549.13;5028118;27;97579;-81
2023/09/29 08:14:31;;;;;;;;;;;;;;;42.27;19.54;100552.41;5049124;27;96825;-81
2023/09/29 08:16:57;;;;;;;;;;;;;;;43.72;18.83;100537.00;5033871;27;96976;-81
2023/09/29 08:19:22;;;;;;;;;;;;;;;41.10;20.35;100543.16;5025920;28;100908;-82
2023/09/29 08:21:49;;;;;;;;;;;;;;;44.13;18.27;100540.00;5031124;28;97314;-80
2023/09/29 08:24:14;;;;;;;;;;;;;;;42.63;19.27;100541.00;5047037;27;97969;-80
2023/09/29 08:26:39;;;;;;;;;;;;;;;44.70;17.67;100536.34;5029788;27;96886;-80
2023/09/29 08:29:06;;;;;;;;;;;;;;;44.53;17.61;100534.94;5028685;27;101436;-83
2023/09/29 08:31:31;;;;;;;;;;;;;;;46.58;16.43;100535.53;5051639;27;97506;-81
2023/09/29 08:33:57;;;;;;;;;;;;;;;48.58;15.18;100537.19;5046350;27;96778;-81
2023/09/29 08:36:23;;;;;;;;;;;;;;;49.64;13.99;100532.94;5016834;27;96972;-84
2023/09/29 08:38:48;;;;;;;;;;;;;;;50.08;13.59;100537.91;5031663;27;98103;-88
2023/09/29 08:41:14;;;;;;;;;;;;;;;48.61;14.36;100531.81;5020491;27;101500;-85
2023/09/29 08:43:40;;;;;;;;;;;;;;;50.82;13.07;100526.47;5035163;27;97493;-85
2023/09/29 08:46:05;;;;;;;;;;;;;;;51.38;13.07;100527.88;5033119;27;96858;-85
2023/09/29 08:48:32;;;;;;;;;;;;;;;49.14;13.88;100525.19;5036567;27;101790;-87
2023/09/29 08:51:01;;;;;;;;;;;;;;;48.29;14.59;100526.97;5037309;27;97387;-84
2023/09/29 08:53:26;;;;;;;;;;;;;;;50.95;12.93;100524.78;5034322;27;97068;-87
2023/09/29 08:55:52;;;;;;;;;;;;;;;52.68;12.32;100510.59;5028564;28;97632;-86
2023/09/29 08:58:18;;;;;;;;;;;;;;;51.28;12.81;100518.91;5024974;27;97596;-85
2023/09/29 09:00:44;;;;;;;;;;;;;;;53.42;11.66;100514.28;5006963;28;101345;-84
2023/09/29 09:03:09;;;;;;;;;;;;;;;52.41;11.77;100516.53;5035088;27;97240;-86
2023/09/29 09:05:35;;;;;;;;;;;;;;;54.26;10.96;100522.94;5037920;27;97061;-86
2023/09/29 09:08:01;;;;;;;;;;;;;;;54.60;11.25;100523.81;5056098;27;97375;-87
2023/09/29 09:10:34;;;;;;;;;;;;;;;54.82;10.93;100525.47;5037960;27;100969;-89
2023/09/29 09:12:59;;;;;;;;;;;;;;;55.26;10.87;100518.22;5038344;27;97237;-86
2023/09/29 09:15:25;;;;;;;;;;;;;;;52.47;11.62;100518.00;5038250;27;97374;-91
2023/09/29 09:17:51;;;;;;;;;;;;;;;54.97;11.12;100512.78;5039696;27;97838;-89
2023/09/29 09:20:16;;;;;;;;;;;;;;;55.64;10.35;100522.75;5054049;27;97910;-91
2023/09/29 09:22:42;;;;;;;;;;;;;;;55.39;10.46;100519.06;5039315;27;96868;-91
2023/09/29 09:25:08;;;;;;;;;;;;;;;56.48;9.90;100505.25;5034931;27;97189;-91
2023/09/29 09:27:38;;;;;;;;;;;;;;;57.00;9.50;100514.78;5053571;27;98464;-85
2023/09/29 09:30:04;;;;;;;;;;;;;;;57.15;9.90;100505.56;5030466;27;101127;-85
2023/09/29 09:32:29;;;;;;;;;;;;;;;55.01;9.99;100510.91;5030804;28;97066;-90
2023/09/29 09:34:54;;;;;;;;;;;;;;;54.91;10.08;100512.13;5019564;27;96950;-86
2023/09/29 09:37:26;;;;;;;;;;;;;;;55.41;10.37;100515.91;5051595;27;97285;-85
2023/09/29 09:39:55;;;;;;;;;;;;;;;55.28;10.06;100509.47;5041097;27;97318;-86
2023/09/29 09:42:24;;;;;;;;;;;;;;;55.34;10.29;100508.06;5033663;27;96865;-85
2023/09/29 09:44:49;;;;;;;;;;;;;;;54.64;10.61;100508.78;5053076;27;97363;-86
2023/09/29 09:47:15;;;;;;;;;;;;;;;54.30;10.52;100509.03;5051841;27;97512;-86
2023/09/29 09:49:44;;;;;;;;;;;;;;;53.62;11.02;100512.72;5034355;27;100872;-82
2023/09/29 09:52:12;;;;;;;;;;;;;;;52.33;11.45;100497.75;5027040;27;97938;-82
2023/09/29 09:54:48;;;;;;;;;;;;;;;51.39;12.00;100490.38;5050958;27;97309;-82
2023/09/29 09:57:17;;;;;;;;;;;;;;;47.93;13.96;100498.78;5050605;27;98744;-82
2023/09/29 09:59:44;;;;;;;;;;;;;;;44.55;16.18;100502.28;5051318;27;97314;-82
2023/09/29 10:02:11;;;;;;;;;;;;;;;41.69;18.92;100504.22;5013616;27;96825;-81
2023/09/29 10:04:38;;;;;;;;;;;;;;;40.64;20.08;100502.94;5051295;27;97030;-81
2023/09/29 10:07:04;;;;;;;;;;;;;;;37.84;22.10;100515.63;5051192;27;97514;-84
2023/09/29 10:09:43;;;;;;;;;;;;;;;37.34;22.33;100514.84;5029801;27;100760;-84
2023/09/29 10:12:09;;;;;;;;;;;;;;;36.58;23.33;100504.81;5022696;27;97165;-84
2023/09/29 10:14:42;;;;;;;;;;;;;;;36.38;24.13;100499.44;5051178;27;97427;-84
2023/09/29 10:17:07;;;;;;;;;;;;;;;35.51;24.34;100510.53;5033117;27;101409;-83
2023/09/29 10:19:39;;;;;;;;;;;;;;;34.82;24.71;100510.84;5048500;27;97328;-84
2023/09/29 10:22:04;;;;;;;;;;;;;;;34.57;25.43;100507.88;5020229;28;97197;-84
2023/09/29 10:24:30;;;;;;;;;;;;;;;34.40;25.57;100512.81;5024589;28;97023;-79
2023/09/29 10:26:59;;;;;;;;;;;;;;;34.02;25.55;100510.50;5047631;27;98320;-81
2023/09/29 10:29:26;;;;;;;;;;;;;;;33.58;25.65;100507.09;5045445;27;98261;-76
2023/09/29 10:31:52;;;;;;;;;;;;;;;33.38;25.82;100510.66;5029286;27;96884;-78
2023/09/29 10:34:20;;;;;;;;;;;;;;;33.08;26.07;100505.41;5055871;27;96877;-79
2023/09/29 10:36:52;;;;;;;;;;;;;;;32.34;27.03;100511.81;5038902;27;97875;-80
2023/09/29 10:39:22;;;;;;;;;;;;;;;32.21;27.68;100506.25;5030638;27;100614;-79
2023/09/29 10:41:54;;;;;;;;;;;;;;;32.18;27.62;100501.19;5053434;27;96871;-79
2023/09/29 10:44:19;;;;;;;;;;;;;;;32.11;27.70;100501.06;5037868;27;96888;-79
2023/09/29 10:46:51;;;;;;;;;;;;;;;31.65;28.12;100487.69;5046424;27;97583;-80
2023/09/29 10:49:16;;;;;;;;;;;;;;;31.82;28.16;100493.75;5042599;27;97340;-84
2023/09/29 10:51:42;;;;;;;;;;;;;;;32.04;28.46;100494.72;5053865;27;96817;-79
2023/09/29 10:54:07;;;;;;;;;;;;;;;32.08;28.30;100498.75;5015410;28;97723;-80
2023/09/29 10:56:33;;;;;;;;;;;;;;;32.07;28.25;100491.63;5024632;28;98848;-80
2023/09/29 10:58:59;;;;;;;;;;;;;;;31.93;28.31;100493.31;5048897;27;97844;-79
2023/09/29 11:01:35;;;;;;;;;;;;;;;31.70;27.96;100492.53;5050914;27;96973;-80
2023/09/29 11:04:01;;;;;;;;;;;;;;;31.47;28.25;100488.00;5044671;27;97066;-79
2023/09/29 11:06:27;;;;;;;;;;;;;;;31.24;28.88;100490.75;5052509;27;97671;-80
2023/09/29 11:08:57;;;;;;;;;;;;;;;30.82;29.26;100475.00;5053166;27;97287;-79
2023/09/29 11:11:26;;;;;;;;;;;;;;;30.65;29.26;100472.34;5053628;27;96833;-80
2023/09/29 11:13:55;;;;;;;;;;;;;;;30.26;29.39;100469.72;5019135;27;97433;-79
2023/09/29 11:16:24;;;;;;;;;;;;;;;29.97;30.15;100463.03;5052909;27;97779;-79
2023/09/29 11:18:50;;;;;;;;;;;;;;;29.94;30.52;100463.38;5032636;27;97381;-82
2023/09/29 11:21:19;;;;;;;;;;;;;;;29.58;30.32;100465.63;5046567;27;96728;-81
2023/09/29 11:23:47;;;;;;;;;;;;;;;29.54;29.96;100459.75;5052570;27;96989;-81
2023/09/29 11:26:12;;;;;;;;;;;;;;;29.38;30.33;100451.66;5052964;27;97502;-79
2023/09/29 11:28:39;;;;;;;;;;;;;;;29.33;30.70;100454.88;5052732;27;97558;-80
2023/09/29 11:31:05;;;;;;;;;;;;;;;29.22;29.87;100451.69;5046909;27;97372;-79
2023/09/29 11:33:30;;;;;;;;;;;;;;;29.32;29.61;100447.78;5042698;27;97060;-82